VHXRD YPPF-YCBP
Flight info
| Callsign | VHXRD |
|---|---|
| Flight time | 2h 13m |
| Altitude | 16000 |
| Route | DOLVU W142 WHA W274 CBP |
| Aircraft | AEST/L-VGD/C |
Departure
| Time | 2026-05-05 23:21 |
|---|---|
| Airport | Adelaide Parafield Airport (YPPF) |
Arrival
| Time | 2026-05-06 01:34 |
|---|---|
| Airport | Coober Pedy Airport (YCBP) |
| Time | Latitude | Longitude | Altitude | Speed | Heading |
|---|---|---|---|---|---|
| 2026-05-05 22:44 | -34.79027 | 138.63525 | 68 ft | 0 kts | 305° |
| 2026-05-05 23:10 | -34.79019 | 138.63509 | 66 ft | 4 kts | 281° |
| 2026-05-05 23:10 | -34.79035 | 138.63492 | 64 ft | 6 kts | 206° |
| 2026-05-05 23:10 | -34.79076 | 138.63528 | 63 ft | 10 kts | 126° |
| 2026-05-05 23:10 | -34.79120 | 138.63566 | 67 ft | 9 kts | 172° |
| 2026-05-05 23:11 | -34.79155 | 138.63578 | 67 ft | 7 kts | 223° |
| 2026-05-05 23:11 | -34.79157 | 138.63526 | 62 ft | 7 kts | 343° |
| 2026-05-05 23:11 | -34.79148 | 138.63515 | 65 ft | 0 kts | 277° |
| 2026-05-05 23:17 | -34.79148 | 138.63514 | 68 ft | 1 kts | 277° |
| 2026-05-05 23:17 | -34.79161 | 138.63501 | 61 ft | 6 kts | 155° |
| 2026-05-05 23:17 | -34.79161 | 138.63569 | 68 ft | 10 kts | 59° |
| 2026-05-05 23:17 | -34.79140 | 138.63652 | 67 ft | 11 kts | 81° |
| 2026-05-05 23:18 | -34.79170 | 138.63715 | 68 ft | 8 kts | 179° |
| 2026-05-05 23:18 | -34.79180 | 138.63712 | 67 ft | 0 kts | 210° |
| 2026-05-05 23:19 | -34.79211 | 138.63691 | 65 ft | 7 kts | 208° |
| 2026-05-05 23:19 | -34.79258 | 138.63664 | 66 ft | 8 kts | 178° |
| 2026-05-05 23:20 | -34.79291 | 138.63714 | 67 ft | 8 kts | 117° |
| 2026-05-05 23:20 | -34.79329 | 138.63747 | 67 ft | 5 kts | 210° |
| 2026-05-05 23:20 | -34.79330 | 138.63747 | 67 ft | 0 kts | 210° |
| 2026-05-05 23:20 | -34.79544 | 138.63606 | 68 ft | 78 kts | 208° |
| 2026-05-05 23:21 | -34.80138 | 138.63224 | 217 ft | 103 kts | 209° |
| 2026-05-05 23:21 | -34.80833 | 138.62773 | 572 ft | 120 kts | 211° |
| 2026-05-05 23:21 | -34.81569 | 138.62230 | 1086 ft | 124 kts | 218° |
| 2026-05-05 23:21 | -34.82156 | 138.61495 | 1674 ft | 119 kts | 241° |
| 2026-05-05 23:22 | -34.82516 | 138.60645 | 2215 ft | 110 kts | 248° |
| 2026-05-05 23:22 | -34.82825 | 138.59807 | 2548 ft | 111 kts | 252° |
| 2026-05-05 23:22 | -34.83102 | 138.58934 | 2889 ft | 108 kts | 257° |
| 2026-05-05 23:22 | -34.83066 | 138.58051 | 3215 ft | 107 kts | 292° |
| 2026-05-05 23:23 | -34.82675 | 138.57263 | 3532 ft | 108 kts | 299° |
| 2026-05-05 23:23 | -34.82240 | 138.56519 | 3863 ft | 108 kts | 299° |
| 2026-05-05 23:23 | -34.81808 | 138.55767 | 4143 ft | 110 kts | 300° |
| 2026-05-05 23:23 | -34.81349 | 138.55030 | 4464 ft | 109 kts | 302° |
| 2026-05-05 23:24 | -34.80851 | 138.54317 | 4754 ft | 111 kts | 306° |
| 2026-05-05 23:24 | -34.80329 | 138.53618 | 5047 ft | 112 kts | 304° |
| 2026-05-05 23:24 | -34.79774 | 138.52937 | 5287 ft | 117 kts | 317° |
| 2026-05-05 23:24 | -34.78972 | 138.52590 | 5471 ft | 129 kts | 345° |
| 2026-05-05 23:25 | -34.78097 | 138.52469 | 5839 ft | 126 kts | 347° |
| 2026-05-05 23:25 | -34.77183 | 138.52369 | 6036 ft | 136 kts | 344° |
| 2026-05-05 23:25 | -34.76271 | 138.52163 | 6365 ft | 131 kts | 341° |
| 2026-05-05 23:25 | -34.75370 | 138.51956 | 6610 ft | 134 kts | 345° |
| 2026-05-05 23:26 | -34.74454 | 138.51766 | 6859 ft | 134 kts | 340° |
| 2026-05-05 23:26 | -34.73549 | 138.51518 | 7111 ft | 133 kts | 340° |
| 2026-05-05 23:26 | -34.72643 | 138.51251 | 7329 ft | 134 kts | 338° |
| 2026-05-05 23:26 | -34.71747 | 138.50963 | 7563 ft | 133 kts | 338° |
| 2026-05-05 23:27 | -34.70854 | 138.50660 | 7759 ft | 134 kts | 339° |
| 2026-05-05 23:27 | -34.69941 | 138.50392 | 8014 ft | 133 kts | 338° |
| 2026-05-05 23:27 | -34.69039 | 138.50101 | 8309 ft | 133 kts | 337° |
| 2026-05-05 23:27 | -34.68155 | 138.49767 | 8598 ft | 133 kts | 335° |
| 2026-05-05 23:28 | -34.67275 | 138.49400 | 8864 ft | 134 kts | 334° |
| 2026-05-05 23:28 | -34.66407 | 138.49020 | 9166 ft | 132 kts | 334° |
| 2026-05-05 23:28 | -34.65556 | 138.48633 | 9423 ft | 133 kts | 333° |
| 2026-05-05 23:28 | -34.64692 | 138.48213 | 9693 ft | 133 kts | 330° |
| 2026-05-05 23:29 | -34.63849 | 138.47751 | 9963 ft | 133 kts | 330° |
| 2026-05-05 23:29 | -34.62984 | 138.47332 | 10194 ft | 135 kts | 337° |
| 2026-05-05 23:29 | -34.62107 | 138.46927 | 10429 ft | 135 kts | 330° |
| 2026-05-05 23:29 | -34.61255 | 138.46464 | 10673 ft | 133 kts | 331° |
| 2026-05-05 23:30 | -34.60389 | 138.46055 | 10878 ft | 135 kts | 333° |
| 2026-05-05 23:30 | -34.59526 | 138.45599 | 11087 ft | 135 kts | 330° |
| 2026-05-05 23:30 | -34.58677 | 138.45176 | 11302 ft | 134 kts | 335° |
| 2026-05-05 23:30 | -34.57778 | 138.44818 | 11479 ft | 137 kts | 335° |
| 2026-05-05 23:31 | -34.56876 | 138.44455 | 11697 ft | 136 kts | 334° |
| 2026-05-05 23:31 | -34.55983 | 138.44081 | 11888 ft | 137 kts | 333° |
| 2026-05-05 23:31 | -34.55091 | 138.43673 | 12073 ft | 137 kts | 331° |
| 2026-05-05 23:31 | -34.54208 | 138.43244 | 12274 ft | 136 kts | 329° |
| 2026-05-05 23:32 | -34.53334 | 138.42785 | 12442 ft | 137 kts | 329° |
| 2026-05-05 23:32 | -34.52461 | 138.42310 | 12623 ft | 137 kts | 329° |
| 2026-05-05 23:32 | -34.51588 | 138.41871 | 12798 ft | 138 kts | 332° |
| 2026-05-05 23:32 | -34.50673 | 138.41491 | 12956 ft | 140 kts | 336° |
| 2026-05-05 23:33 | -34.49734 | 138.41161 | 13127 ft | 141 kts | 335° |
| 2026-05-05 23:33 | -34.48801 | 138.40806 | 13305 ft | 140 kts | 334° |
| 2026-05-05 23:33 | -34.47877 | 138.40426 | 13468 ft | 140 kts | 334° |
| 2026-05-05 23:33 | -34.46950 | 138.40048 | 13630 ft | 141 kts | 334° |
| 2026-05-05 23:34 | -34.46009 | 138.39702 | 13781 ft | 142 kts | 336° |
| 2026-05-05 23:34 | -34.45056 | 138.39373 | 13941 ft | 142 kts | 335° |
| 2026-05-05 23:34 | -34.44123 | 138.38985 | 14096 ft | 141 kts | 332° |
| 2026-05-05 23:34 | -34.43204 | 138.38566 | 14232 ft | 141 kts | 332° |
| 2026-05-05 23:35 | -34.42275 | 138.38171 | 14354 ft | 142 kts | 335° |
| 2026-05-05 23:35 | -34.41316 | 138.37849 | 14471 ft | 144 kts | 336° |
| 2026-05-05 23:35 | -34.40363 | 138.37500 | 14606 ft | 142 kts | 334° |
| 2026-05-05 23:35 | -34.39447 | 138.37090 | 14725 ft | 142 kts | 330° |
| 2026-05-05 23:36 | -34.38533 | 138.36641 | 14844 ft | 142 kts | 329° |
| 2026-05-05 23:36 | -34.37617 | 138.36196 | 14964 ft | 142 kts | 330° |
| 2026-05-05 23:36 | -34.36681 | 138.35727 | 14960 ft | 152 kts | 330° |
| 2026-05-05 23:36 | -34.35698 | 138.35236 | 15029 ft | 155 kts | 331° |
| 2026-05-05 23:37 | -34.34671 | 138.34746 | 15029 ft | 162 kts | 332° |
| 2026-05-05 23:37 | -34.33594 | 138.34251 | 15019 ft | 169 kts | 333° |
| 2026-05-05 23:37 | -34.32470 | 138.33752 | 15023 ft | 174 kts | 334° |
| 2026-05-05 23:37 | -34.31310 | 138.33264 | 15006 ft | 179 kts | 335° |
| 2026-05-05 23:38 | -34.30137 | 138.32711 | 15010 ft | 182 kts | 330° |
| 2026-05-05 23:38 | -34.28982 | 138.32058 | 15004 ft | 184 kts | 328° |
| 2026-05-05 23:38 | -34.27819 | 138.31445 | 15005 ft | 186 kts | 332° |
| 2026-05-05 23:38 | -34.26632 | 138.30810 | 15004 ft | 187 kts | 329° |
| 2026-05-05 23:39 | -34.25458 | 138.30120 | 15000 ft | 187 kts | 328° |
| 2026-05-05 23:39 | -34.24302 | 138.29401 | 15006 ft | 187 kts | 327° |
| 2026-05-05 23:39 | -34.23150 | 138.28665 | 15006 ft | 188 kts | 327° |
| 2026-05-05 23:39 | -34.21990 | 138.27927 | 15004 ft | 189 kts | 327° |
| 2026-05-05 23:40 | -34.20818 | 138.27209 | 15008 ft | 189 kts | 328° |
| 2026-05-05 23:40 | -34.19625 | 138.26529 | 15005 ft | 190 kts | 330° |
| 2026-05-05 23:40 | -34.18405 | 138.25902 | 15008 ft | 191 kts | 333° |
| 2026-05-05 23:40 | -34.17158 | 138.25332 | 15002 ft | 192 kts | 335° |
| 2026-05-05 23:41 | -34.15895 | 138.24815 | 15006 ft | 192 kts | 336° |
| 2026-05-05 23:41 | -34.14618 | 138.24336 | 15007 ft | 193 kts | 338° |
| 2026-05-05 23:41 | -34.13327 | 138.23883 | 15007 ft | 193 kts | 338° |
| 2026-05-05 23:41 | -34.12036 | 138.23424 | 15009 ft | 194 kts | 337° |
| 2026-05-05 23:42 | -34.10762 | 138.22901 | 15008 ft | 193 kts | 334° |
| 2026-05-05 23:42 | -34.09534 | 138.22293 | 15003 ft | 193 kts | 330° |
| 2026-05-05 23:42 | -34.08335 | 138.21572 | 15005 ft | 192 kts | 326° |
| 2026-05-05 23:42 | -34.07214 | 138.20705 | 15009 ft | 191 kts | 315° |
| 2026-05-05 23:43 | -34.06226 | 138.19647 | 15005 ft | 189 kts | 313° |
| 2026-05-05 23:43 | -34.05260 | 138.18583 | 14999 ft | 188 kts | 313° |
| 2026-05-05 23:43 | -34.04274 | 138.17555 | 15000 ft | 188 kts | 316° |
| 2026-05-05 23:43 | -34.03244 | 138.16587 | 15004 ft | 188 kts | 319° |
| 2026-05-05 23:44 | -34.02163 | 138.15699 | 15005 ft | 188 kts | 323° |
| 2026-05-05 23:44 | -34.01028 | 138.14899 | 15004 ft | 189 kts | 327° |
| 2026-05-05 23:44 | -33.99860 | 138.14202 | 15003 ft | 190 kts | 330° |
| 2026-05-05 23:44 | -33.98638 | 138.13572 | 15004 ft | 191 kts | 333° |
| 2026-05-05 23:45 | -33.97399 | 138.12987 | 15005 ft | 192 kts | 334° |
| 2026-05-05 23:45 | -33.96154 | 138.12408 | 15003 ft | 192 kts | 333° |
| 2026-05-05 23:45 | -33.94915 | 138.11812 | 15009 ft | 192 kts | 332° |
| 2026-05-05 23:45 | -33.93689 | 138.11176 | 15012 ft | 192 kts | 330° |
| 2026-05-05 23:46 | -33.92485 | 138.10484 | 15012 ft | 191 kts | 328° |
| 2026-05-05 23:46 | -33.91310 | 138.09730 | 15007 ft | 192 kts | 325° |
| 2026-05-05 23:46 | -33.90159 | 138.08921 | 15008 ft | 191 kts | 324° |
| 2026-05-05 23:46 | -33.89028 | 138.08084 | 15009 ft | 191 kts | 323° |
| 2026-05-05 23:47 | -33.87910 | 138.07232 | 15011 ft | 190 kts | 322° |
| 2026-05-05 23:47 | -33.86810 | 138.06380 | 15011 ft | 190 kts | 322° |
| 2026-05-05 23:47 | -33.85700 | 138.05515 | 15002 ft | 190 kts | 322° |
| 2026-05-05 23:47 | -33.84588 | 138.04658 | 15010 ft | 190 kts | 322° |
| 2026-05-05 23:48 | -33.83467 | 138.03815 | 15008 ft | 190 kts | 323° |
| 2026-05-05 23:48 | -33.82336 | 138.02995 | 15011 ft | 190 kts | 324° |
| 2026-05-05 23:48 | -33.81193 | 138.02203 | 15067 ft | 185 kts | 326° |
| 2026-05-05 23:48 | -33.80113 | 138.01517 | 15372 ft | 169 kts | 328° |
| 2026-05-05 23:49 | -33.79067 | 138.00937 | 15560 ft | 162 kts | 329° |
| 2026-05-05 23:49 | -33.78049 | 138.00404 | 15728 ft | 157 kts | 330° |
| 2026-05-05 23:49 | -33.77049 | 137.99906 | 15845 ft | 155 kts | 332° |
| 2026-05-05 23:49 | -33.76044 | 137.99438 | 15935 ft | 155 kts | 331° |
| 2026-05-05 23:50 | -33.75052 | 137.98933 | 16028 ft | 154 kts | 330° |
| 2026-05-05 23:50 | -33.74044 | 137.98403 | 16024 ft | 161 kts | 328° |
| 2026-05-05 23:50 | -33.73031 | 137.97785 | 16014 ft | 166 kts | 326° |
| 2026-05-05 23:50 | -33.72017 | 137.97138 | 16032 ft | 169 kts | 324° |
| 2026-05-05 23:51 | -33.71007 | 137.96395 | 16022 ft | 172 kts | 321° |
| 2026-05-05 23:51 | -33.70009 | 137.95591 | 16004 ft | 173 kts | 320° |
| 2026-05-05 23:51 | -33.69023 | 137.94751 | 16016 ft | 174 kts | 319° |
| 2026-05-05 23:51 | -33.68045 | 137.93901 | 16016 ft | 173 kts | 319° |
| 2026-05-05 23:52 | -33.67069 | 137.93052 | 16015 ft | 173 kts | 319° |
| 2026-05-05 23:52 | -33.66089 | 137.92216 | 16016 ft | 173 kts | 320° |
| 2026-05-05 23:52 | -33.65097 | 137.91406 | 16011 ft | 173 kts | 321° |
| 2026-05-05 23:52 | -33.64085 | 137.90635 | 16013 ft | 173 kts | 323° |
| 2026-05-05 23:53 | -33.63048 | 137.89902 | 16015 ft | 173 kts | 325° |
| 2026-05-05 23:53 | -33.61988 | 137.89203 | 16015 ft | 173 kts | 326° |
| 2026-05-05 23:53 | -33.60918 | 137.88540 | 16017 ft | 173 kts | 328° |
| 2026-05-05 23:53 | -33.59833 | 137.87902 | 16020 ft | 174 kts | 328° |
| 2026-05-05 23:54 | -33.59110 | 137.87487 | 16018 ft | 174 kts | 329° |
| 2026-05-05 23:54 | -33.58014 | 137.86865 | 16018 ft | 174 kts | 329° |
| 2026-05-05 23:54 | -33.56918 | 137.86242 | 16016 ft | 174 kts | 329° |
| 2026-05-05 23:54 | -33.55473 | 137.85398 | 16017 ft | 174 kts | 328° |
| 2026-05-05 23:55 | -33.54743 | 137.84956 | 16018 ft | 174 kts | 327° |
| 2026-05-05 23:55 | -33.53670 | 137.84282 | 16017 ft | 174 kts | 326° |
| 2026-05-05 23:55 | -33.52621 | 137.83591 | 16020 ft | 174 kts | 325° |
| 2026-05-05 23:55 | -33.51573 | 137.82871 | 16019 ft | 174 kts | 324° |
| 2026-05-05 23:56 | -33.50532 | 137.82135 | 16017 ft | 173 kts | 323° |
| 2026-05-05 23:56 | -33.49495 | 137.81386 | 16016 ft | 174 kts | 323° |
| 2026-05-05 23:56 | -33.48461 | 137.80635 | 16025 ft | 174 kts | 323° |
| 2026-05-05 23:56 | -33.47426 | 137.79887 | 16019 ft | 174 kts | 323° |
| 2026-05-05 23:57 | -33.46384 | 137.79144 | 16024 ft | 174 kts | 324° |
| 2026-05-05 23:57 | -33.45338 | 137.78412 | 16020 ft | 174 kts | 324° |
| 2026-05-05 23:57 | -33.44281 | 137.77692 | 16016 ft | 175 kts | 325° |
| 2026-05-05 23:57 | -33.43218 | 137.76987 | 16019 ft | 175 kts | 326° |
| 2026-05-05 23:58 | -33.42149 | 137.76296 | 16020 ft | 175 kts | 326° |
| 2026-05-05 23:58 | -33.41074 | 137.75614 | 16019 ft | 175 kts | 327° |
| 2026-05-05 23:58 | -33.39991 | 137.74934 | 16019 ft | 175 kts | 327° |
| 2026-05-05 23:58 | -33.38908 | 137.74255 | 16017 ft | 175 kts | 327° |
| 2026-05-05 23:59 | -33.37828 | 137.73574 | 16018 ft | 175 kts | 327° |
| 2026-05-05 23:59 | -33.36752 | 137.72888 | 16016 ft | 176 kts | 326° |
| 2026-05-05 23:59 | -33.35689 | 137.72201 | 16025 ft | 176 kts | 326° |
| 2026-05-05 23:59 | -33.34618 | 137.71497 | 16021 ft | 176 kts | 326° |
| 2026-05-06 00:00 | -33.33549 | 137.70783 | 16014 ft | 176 kts | 325° |
| 2026-05-06 00:00 | -33.32481 | 137.70064 | 16022 ft | 175 kts | 325° |
| 2026-05-06 00:00 | -33.31416 | 137.69343 | 16023 ft | 175 kts | 325° |
| 2026-05-06 00:00 | -33.30354 | 137.68621 | 16022 ft | 176 kts | 325° |
| 2026-05-06 00:01 | -33.29290 | 137.67898 | 16020 ft | 176 kts | 325° |
| 2026-05-06 00:01 | -33.28228 | 137.67178 | 16024 ft | 175 kts | 325° |
| 2026-05-06 00:01 | -33.27166 | 137.66462 | 16025 ft | 175 kts | 325° |
| 2026-05-06 00:01 | -33.26101 | 137.65750 | 16022 ft | 175 kts | 325° |
| 2026-05-06 00:02 | -33.25045 | 137.65049 | 16023 ft | 175 kts | 326° |
| 2026-05-06 00:02 | -33.23975 | 137.64344 | 16026 ft | 175 kts | 326° |
| 2026-05-06 00:02 | -33.22904 | 137.63643 | 16021 ft | 176 kts | 326° |
| 2026-05-06 00:02 | -33.21829 | 137.62937 | 16028 ft | 177 kts | 326° |
| 2026-05-06 00:03 | -33.20749 | 137.62230 | 16026 ft | 177 kts | 326° |
| 2026-05-06 00:03 | -33.19669 | 137.61525 | 16026 ft | 177 kts | 326° |
| 2026-05-06 00:03 | -33.18589 | 137.60822 | 16026 ft | 177 kts | 326° |
| 2026-05-06 00:03 | -33.17508 | 137.60118 | 16028 ft | 177 kts | 326° |
| 2026-05-06 00:04 | -33.16426 | 137.59412 | 16028 ft | 177 kts | 326° |
| 2026-05-06 00:04 | -33.15347 | 137.58705 | 16025 ft | 177 kts | 326° |
| 2026-05-06 00:04 | -33.14264 | 137.57994 | 16031 ft | 177 kts | 326° |
| 2026-05-06 00:04 | -33.13185 | 137.57287 | 16046 ft | 176 kts | 326° |
| 2026-05-06 00:05 | -33.11048 | 137.55878 | 16049 ft | 177 kts | 326° |
| 2026-05-06 00:05 | -33.09970 | 137.55165 | 16050 ft | 177 kts | 326° |
| 2026-05-06 00:05 | -33.08892 | 137.54450 | 16041 ft | 177 kts | 326° |
| 2026-05-06 00:06 | -33.08666 | 137.54299 | 16042 ft | 177 kts | 326° |
| 2026-05-06 00:06 | -33.07698 | 137.53658 | 16046 ft | 177 kts | 326° |
| 2026-05-06 00:06 | -33.06632 | 137.52954 | 16052 ft | 177 kts | 326° |
| 2026-05-06 00:07 | -33.05550 | 137.52239 | 16051 ft | 178 kts | 326° |
| 2026-05-06 00:07 | -33.04470 | 137.51522 | 16052 ft | 177 kts | 326° |
| 2026-05-06 00:07 | -33.03393 | 137.50793 | 16049 ft | 178 kts | 325° |
| 2026-05-06 00:07 | -33.02326 | 137.50048 | 16048 ft | 178 kts | 324° |
| 2026-05-06 00:08 | -33.01270 | 137.49289 | 16050 ft | 177 kts | 323° |
| 2026-05-06 00:08 | -33.00219 | 137.48515 | 16051 ft | 177 kts | 323° |
| 2026-05-06 00:08 | -32.99175 | 137.47732 | 16048 ft | 177 kts | 322° |
| 2026-05-06 00:08 | -32.98135 | 137.46945 | 16048 ft | 177 kts | 322° |
| 2026-05-06 00:09 | -32.97096 | 137.46155 | 16048 ft | 177 kts | 322° |
| 2026-05-06 00:09 | -32.96070 | 137.45376 | 16047 ft | 177 kts | 322° |
| 2026-05-06 00:09 | -32.95028 | 137.44591 | 16052 ft | 177 kts | 323° |
| 2026-05-06 00:09 | -32.93982 | 137.43810 | 16049 ft | 178 kts | 323° |
| 2026-05-06 00:10 | -32.92930 | 137.43038 | 16046 ft | 178 kts | 323° |
| 2026-05-06 00:10 | -32.91873 | 137.42274 | 16051 ft | 178 kts | 324° |
| 2026-05-06 00:10 | -32.90811 | 137.41517 | 16052 ft | 178 kts | 324° |
| 2026-05-06 00:10 | -32.89743 | 137.40765 | 16052 ft | 178 kts | 324° |
| 2026-05-06 00:11 | -32.88673 | 137.40018 | 16052 ft | 178 kts | 324° |
| 2026-05-06 00:11 | -32.87602 | 137.39272 | 16052 ft | 178 kts | 324° |
| 2026-05-06 00:11 | -32.86532 | 137.38525 | 16049 ft | 178 kts | 324° |
| 2026-05-06 00:11 | -32.85475 | 137.37783 | 16051 ft | 179 kts | 324° |
| 2026-05-06 00:12 | -32.84404 | 137.37025 | 16051 ft | 179 kts | 324° |
| 2026-05-06 00:12 | -32.83333 | 137.36262 | 16055 ft | 179 kts | 324° |
| 2026-05-06 00:12 | -32.82268 | 137.35498 | 16055 ft | 179 kts | 324° |
| 2026-05-06 00:12 | -32.81203 | 137.34731 | 16054 ft | 179 kts | 324° |
| 2026-05-06 00:13 | -32.80141 | 137.33964 | 16054 ft | 179 kts | 324° |
| 2026-05-06 00:13 | -32.79092 | 137.33203 | 16055 ft | 178 kts | 323° |
| 2026-05-06 00:13 | -32.78032 | 137.32434 | 16055 ft | 178 kts | 323° |
| 2026-05-06 00:13 | -32.76972 | 137.31664 | 16055 ft | 179 kts | 323° |
| 2026-05-06 00:14 | -32.75910 | 137.30894 | 16053 ft | 179 kts | 323° |
| 2026-05-06 00:14 | -32.74849 | 137.30124 | 16051 ft | 179 kts | 324° |
| 2026-05-06 00:14 | -32.73784 | 137.29355 | 16049 ft | 179 kts | 324° |
| 2026-05-06 00:14 | -32.72720 | 137.28589 | 16054 ft | 179 kts | 324° |
| 2026-05-06 00:15 | -32.71655 | 137.27825 | 16054 ft | 179 kts | 324° |
| 2026-05-06 00:15 | -32.70589 | 137.27065 | 16055 ft | 179 kts | 324° |
| 2026-05-06 00:15 | -32.69524 | 137.26306 | 16056 ft | 179 kts | 324° |
| 2026-05-06 00:15 | -32.68455 | 137.25547 | 16054 ft | 179 kts | 324° |
| 2026-05-06 00:16 | -32.67386 | 137.24790 | 16053 ft | 179 kts | 324° |
| 2026-05-06 00:16 | -32.66331 | 137.24040 | 16050 ft | 179 kts | 324° |
| 2026-05-06 00:16 | -32.65262 | 137.23275 | 16053 ft | 179 kts | 324° |
| 2026-05-06 00:16 | -32.64196 | 137.22511 | 16056 ft | 179 kts | 324° |
| 2026-05-06 00:17 | -32.63126 | 137.21745 | 16058 ft | 179 kts | 324° |
| 2026-05-06 00:17 | -32.62058 | 137.20979 | 16057 ft | 179 kts | 324° |
| 2026-05-06 00:17 | -32.60985 | 137.20211 | 16056 ft | 180 kts | 324° |
| 2026-05-06 00:17 | -32.59916 | 137.19446 | 16057 ft | 179 kts | 324° |
| 2026-05-06 00:18 | -32.58845 | 137.18680 | 16059 ft | 179 kts | 324° |
| 2026-05-06 00:18 | -32.57776 | 137.17917 | 16060 ft | 179 kts | 324° |
| 2026-05-06 00:18 | -32.56720 | 137.17163 | 16061 ft | 179 kts | 324° |
| 2026-05-06 00:18 | -32.55650 | 137.16400 | 16060 ft | 180 kts | 324° |
| 2026-05-06 00:19 | -32.54578 | 137.15637 | 16059 ft | 180 kts | 324° |
| 2026-05-06 00:19 | -32.53505 | 137.14873 | 16059 ft | 180 kts | 324° |
| 2026-05-06 00:19 | -32.52430 | 137.14109 | 16053 ft | 180 kts | 324° |
| 2026-05-06 00:19 | -32.51351 | 137.13342 | 16055 ft | 180 kts | 324° |
| 2026-05-06 00:20 | -32.50275 | 137.12578 | 16056 ft | 180 kts | 324° |
| 2026-05-06 00:20 | -32.49204 | 137.11817 | 16056 ft | 180 kts | 324° |
| 2026-05-06 00:20 | -32.48132 | 137.11054 | 16054 ft | 180 kts | 324° |
| 2026-05-06 00:20 | -32.47064 | 137.10291 | 16054 ft | 180 kts | 324° |
| 2026-05-06 00:21 | -32.46006 | 137.09536 | 16054 ft | 180 kts | 324° |
| 2026-05-06 00:21 | -32.44935 | 137.08772 | 16055 ft | 180 kts | 324° |
| 2026-05-06 00:21 | -32.43865 | 137.08009 | 16053 ft | 180 kts | 324° |
| 2026-05-06 00:21 | -32.42793 | 137.07245 | 16058 ft | 180 kts | 324° |
| 2026-05-06 00:22 | -32.41720 | 137.06481 | 16055 ft | 180 kts | 324° |
| 2026-05-06 00:22 | -32.40646 | 137.05718 | 16056 ft | 180 kts | 324° |
| 2026-05-06 00:22 | -32.39573 | 137.04958 | 16056 ft | 180 kts | 324° |
| 2026-05-06 00:22 | -32.38497 | 137.04196 | 16059 ft | 180 kts | 324° |
| 2026-05-06 00:23 | -32.37421 | 137.03428 | 16048 ft | 181 kts | 324° |
| 2026-05-06 00:23 | -32.36345 | 137.02658 | 16051 ft | 181 kts | 324° |
| 2026-05-06 00:23 | -32.35267 | 137.01888 | 16054 ft | 181 kts | 324° |
| 2026-05-06 00:23 | -32.34185 | 137.01120 | 16055 ft | 181 kts | 324° |
| 2026-05-06 00:24 | -32.33103 | 137.00354 | 16055 ft | 181 kts | 324° |
| 2026-05-06 00:24 | -32.32036 | 136.99602 | 16055 ft | 181 kts | 324° |
| 2026-05-06 00:24 | -32.30953 | 136.98837 | 16055 ft | 181 kts | 324° |
| 2026-05-06 00:24 | -32.29872 | 136.98075 | 16060 ft | 181 kts | 324° |
| 2026-05-06 00:25 | -32.28789 | 136.97310 | 16050 ft | 181 kts | 324° |
| 2026-05-06 00:25 | -32.27705 | 136.96545 | 16058 ft | 181 kts | 324° |
| 2026-05-06 00:25 | -32.26621 | 136.95780 | 16059 ft | 181 kts | 324° |
| 2026-05-06 00:25 | -32.25537 | 136.95016 | 16056 ft | 182 kts | 324° |
| 2026-05-06 00:26 | -32.24453 | 136.94250 | 16056 ft | 182 kts | 324° |
| 2026-05-06 00:26 | -32.23367 | 136.93482 | 16057 ft | 182 kts | 324° |
| 2026-05-06 00:26 | -32.22280 | 136.92712 | 16060 ft | 182 kts | 324° |
| 2026-05-06 00:26 | -32.21194 | 136.91942 | 16060 ft | 182 kts | 324° |
| 2026-05-06 00:27 | -32.20121 | 136.91183 | 16061 ft | 182 kts | 324° |
| 2026-05-06 00:27 | -32.19021 | 136.90404 | 16061 ft | 182 kts | 324° |
| 2026-05-06 00:27 | -32.17944 | 136.89641 | 16060 ft | 182 kts | 324° |
| 2026-05-06 00:27 | -32.16855 | 136.88871 | 16060 ft | 182 kts | 324° |
| 2026-05-06 00:28 | -32.15768 | 136.88103 | 16060 ft | 182 kts | 324° |
| 2026-05-06 00:28 | -32.14682 | 136.87336 | 16061 ft | 182 kts | 324° |
| 2026-05-06 00:28 | -32.13592 | 136.86567 | 16059 ft | 182 kts | 324° |
| 2026-05-06 00:28 | -32.12518 | 136.85810 | 16057 ft | 182 kts | 324° |
| 2026-05-06 00:29 | -32.11417 | 136.85035 | 16058 ft | 182 kts | 324° |
| 2026-05-06 00:29 | -32.10343 | 136.84279 | 16058 ft | 182 kts | 324° |
| 2026-05-06 00:29 | -32.09255 | 136.83514 | 16060 ft | 182 kts | 324° |
| 2026-05-06 00:29 | -32.08167 | 136.82748 | 16059 ft | 182 kts | 324° |
| 2026-05-06 00:30 | -32.07082 | 136.81984 | 16057 ft | 182 kts | 324° |
| 2026-05-06 00:30 | -32.05994 | 136.81219 | 16058 ft | 182 kts | 324° |
| 2026-05-06 00:30 | -32.04905 | 136.80452 | 16059 ft | 182 kts | 324° |
| 2026-05-06 00:30 | -32.03820 | 136.79688 | 16062 ft | 182 kts | 324° |
| 2026-05-06 00:31 | -32.02733 | 136.78921 | 16063 ft | 182 kts | 324° |
| 2026-05-06 00:31 | -32.01646 | 136.78155 | 16064 ft | 182 kts | 324° |
| 2026-05-06 00:31 | -32.00559 | 136.77390 | 16057 ft | 182 kts | 324° |
| 2026-05-06 00:31 | -31.99487 | 136.76635 | 16059 ft | 183 kts | 324° |
| 2026-05-06 00:32 | -31.98390 | 136.75862 | 16065 ft | 185 kts | 324° |
| 2026-05-06 00:32 | -31.97276 | 136.75077 | 16067 ft | 188 kts | 324° |
| 2026-05-06 00:32 | -31.96147 | 136.74280 | 16067 ft | 190 kts | 324° |
| 2026-05-06 00:32 | -31.95007 | 136.73476 | 16064 ft | 192 kts | 325° |
| 2026-05-06 00:33 | -31.93855 | 136.72665 | 16063 ft | 193 kts | 325° |
| 2026-05-06 00:33 | -31.92694 | 136.71849 | 16062 ft | 195 kts | 325° |
| 2026-05-06 00:33 | -31.91526 | 136.71030 | 16062 ft | 196 kts | 325° |
| 2026-05-06 00:33 | -31.90351 | 136.70208 | 16049 ft | 197 kts | 325° |
| 2026-05-06 00:34 | -31.89171 | 136.69384 | 16046 ft | 198 kts | 325° |
| 2026-05-06 00:34 | -31.87986 | 136.68558 | 16049 ft | 198 kts | 325° |
| 2026-05-06 00:34 | -31.86818 | 136.67744 | 16048 ft | 198 kts | 325° |
| 2026-05-06 00:34 | -31.85629 | 136.66916 | 16048 ft | 198 kts | 325° |
| 2026-05-06 00:35 | -31.84438 | 136.66087 | 16048 ft | 198 kts | 325° |
| 2026-05-06 00:35 | -31.83252 | 136.65259 | 16049 ft | 198 kts | 325° |
| 2026-05-06 00:35 | -31.82064 | 136.64429 | 16051 ft | 198 kts | 325° |
| 2026-05-06 00:35 | -31.80876 | 136.63595 | 16045 ft | 199 kts | 325° |
| 2026-05-06 00:36 | -31.79687 | 136.62756 | 16048 ft | 199 kts | 325° |
| 2026-05-06 00:36 | -31.78515 | 136.61930 | 16049 ft | 199 kts | 325° |
| 2026-05-06 00:36 | -31.77328 | 136.61094 | 16052 ft | 199 kts | 325° |
| 2026-05-06 00:36 | -31.76136 | 136.60258 | 16047 ft | 199 kts | 325° |
| 2026-05-06 00:37 | -31.74945 | 136.59426 | 16047 ft | 199 kts | 325° |
| 2026-05-06 00:37 | -31.73751 | 136.58594 | 16047 ft | 199 kts | 325° |
| 2026-05-06 00:37 | -31.72557 | 136.57763 | 16046 ft | 199 kts | 325° |
| 2026-05-06 00:37 | -31.71361 | 136.56932 | 16045 ft | 199 kts | 325° |
| 2026-05-06 00:38 | -31.70167 | 136.56103 | 16048 ft | 200 kts | 325° |
| 2026-05-06 00:38 | -31.68970 | 136.55270 | 16049 ft | 200 kts | 325° |
| 2026-05-06 00:38 | -31.67789 | 136.54450 | 16048 ft | 200 kts | 325° |
| 2026-05-06 00:38 | -31.66594 | 136.53617 | 16048 ft | 200 kts | 325° |
| 2026-05-06 00:39 | -31.65394 | 136.52783 | 16047 ft | 200 kts | 325° |
| 2026-05-06 00:39 | -31.64195 | 136.51948 | 16049 ft | 200 kts | 325° |
| 2026-05-06 00:39 | -31.62999 | 136.51114 | 16050 ft | 200 kts | 325° |
| 2026-05-06 00:39 | -31.61799 | 136.50279 | 16049 ft | 200 kts | 325° |
| 2026-05-06 00:40 | -31.61007 | 136.49728 | 16049 ft | 200 kts | 325° |
| 2026-05-06 00:40 | -31.59809 | 136.48893 | 16051 ft | 200 kts | 325° |
| 2026-05-06 00:40 | -31.58613 | 136.48060 | 16050 ft | 200 kts | 325° |
| 2026-05-06 00:40 | -31.57027 | 136.46954 | 16050 ft | 200 kts | 325° |
| 2026-05-06 00:41 | -31.56218 | 136.46390 | 16048 ft | 200 kts | 325° |
| 2026-05-06 00:41 | -31.55038 | 136.45568 | 16048 ft | 200 kts | 325° |
| 2026-05-06 00:41 | -31.53840 | 136.44734 | 16048 ft | 200 kts | 325° |
| 2026-05-06 00:41 | -31.52642 | 136.43900 | 16053 ft | 200 kts | 325° |
| 2026-05-06 00:42 | -31.51445 | 136.43066 | 16050 ft | 200 kts | 325° |
| 2026-05-06 00:42 | -31.50245 | 136.42231 | 16048 ft | 200 kts | 326° |
| 2026-05-06 00:42 | -31.49045 | 136.41398 | 16047 ft | 200 kts | 326° |
| 2026-05-06 00:42 | -31.47846 | 136.40568 | 16050 ft | 200 kts | 326° |
| 2026-05-06 00:43 | -31.46645 | 136.39738 | 16049 ft | 200 kts | 326° |
| 2026-05-06 00:43 | -31.45458 | 136.38917 | 16048 ft | 201 kts | 326° |
| 2026-05-06 00:43 | -31.44257 | 136.38088 | 16049 ft | 201 kts | 326° |
| 2026-05-06 00:43 | -31.43052 | 136.37256 | 16048 ft | 201 kts | 326° |
| 2026-05-06 00:44 | -31.41848 | 136.36425 | 16044 ft | 201 kts | 326° |
| 2026-05-06 00:44 | -31.40645 | 136.35591 | 16049 ft | 201 kts | 326° |
| 2026-05-06 00:44 | -31.39443 | 136.34759 | 16051 ft | 201 kts | 326° |
| 2026-05-06 00:44 | -31.38242 | 136.33927 | 16049 ft | 201 kts | 326° |
| 2026-05-06 00:45 | -31.37039 | 136.33093 | 16050 ft | 201 kts | 326° |
| 2026-05-06 00:45 | -31.35837 | 136.32260 | 16050 ft | 201 kts | 326° |
| 2026-05-06 00:45 | -31.34630 | 136.31423 | 16049 ft | 201 kts | 326° |
| 2026-05-06 00:45 | -31.33427 | 136.30591 | 16050 ft | 201 kts | 326° |
| 2026-05-06 00:46 | -31.32224 | 136.29760 | 16049 ft | 201 kts | 326° |
| 2026-05-06 00:46 | -31.31020 | 136.28930 | 16050 ft | 201 kts | 326° |
| 2026-05-06 00:46 | -31.29816 | 136.28100 | 16049 ft | 201 kts | 326° |
| 2026-05-06 00:46 | -31.28626 | 136.27282 | 16049 ft | 201 kts | 326° |
| 2026-05-06 00:47 | -31.27420 | 136.26452 | 16049 ft | 201 kts | 326° |
| 2026-05-06 00:47 | -31.26213 | 136.25624 | 16050 ft | 201 kts | 326° |
| 2026-05-06 00:47 | -31.25008 | 136.24795 | 16050 ft | 201 kts | 326° |
| 2026-05-06 00:47 | -31.23801 | 136.23963 | 16049 ft | 201 kts | 326° |
| 2026-05-06 00:48 | -31.22595 | 136.23131 | 16050 ft | 201 kts | 326° |
| 2026-05-06 00:48 | -31.21406 | 136.22311 | 16051 ft | 201 kts | 326° |
| 2026-05-06 00:48 | -31.20200 | 136.21481 | 16047 ft | 201 kts | 326° |
| 2026-05-06 00:48 | -31.18994 | 136.20652 | 16049 ft | 201 kts | 326° |
| 2026-05-06 00:49 | -31.17786 | 136.19823 | 16051 ft | 201 kts | 326° |
| 2026-05-06 00:49 | -31.16576 | 136.18994 | 16048 ft | 201 kts | 326° |
| 2026-05-06 00:49 | -31.15364 | 136.18164 | 16049 ft | 201 kts | 326° |
| 2026-05-06 00:49 | -31.14155 | 136.17336 | 16051 ft | 201 kts | 326° |
| 2026-05-06 00:50 | -31.12959 | 136.16517 | 16039 ft | 202 kts | 326° |
| 2026-05-06 00:50 | -31.11746 | 136.15685 | 16047 ft | 202 kts | 326° |
| 2026-05-06 00:50 | -31.10538 | 136.14856 | 16049 ft | 202 kts | 326° |
| 2026-05-06 00:50 | -31.09330 | 136.14027 | 16049 ft | 201 kts | 326° |
| 2026-05-06 00:51 | -31.08123 | 136.13199 | 16049 ft | 202 kts | 326° |
| 2026-05-06 00:51 | -31.06912 | 136.12367 | 16050 ft | 202 kts | 326° |
| 2026-05-06 00:51 | -31.05700 | 136.11536 | 16050 ft | 202 kts | 326° |
| 2026-05-06 00:51 | -31.04490 | 136.10705 | 16048 ft | 202 kts | 326° |
| 2026-05-06 00:52 | -31.03279 | 136.09875 | 16048 ft | 202 kts | 326° |
| 2026-05-06 00:52 | -31.02070 | 136.09045 | 16049 ft | 202 kts | 326° |
| 2026-05-06 00:52 | -31.00874 | 136.08226 | 16052 ft | 202 kts | 326° |
| 2026-05-06 00:52 | -30.99648 | 136.07388 | 16053 ft | 202 kts | 326° |
| 2026-05-06 00:53 | -30.98454 | 136.06572 | 16051 ft | 202 kts | 326° |
| 2026-05-06 00:53 | -30.97243 | 136.05746 | 16053 ft | 202 kts | 326° |
| 2026-05-06 00:53 | -30.96030 | 136.04918 | 16050 ft | 202 kts | 326° |
| 2026-05-06 00:53 | -30.94818 | 136.04086 | 16051 ft | 202 kts | 326° |
| 2026-05-06 00:54 | -30.93608 | 136.03255 | 16051 ft | 202 kts | 326° |
| 2026-05-06 00:54 | -30.92394 | 136.02423 | 16052 ft | 202 kts | 326° |
| 2026-05-06 00:54 | -30.91175 | 136.01590 | 16052 ft | 202 kts | 326° |
| 2026-05-06 00:54 | -30.89956 | 136.00758 | 16056 ft | 202 kts | 326° |
| 2026-05-06 00:55 | -30.88740 | 135.99931 | 16048 ft | 203 kts | 326° |
| 2026-05-06 00:55 | -30.87522 | 135.99104 | 16050 ft | 202 kts | 326° |
| 2026-05-06 00:55 | -30.86319 | 135.98288 | 16049 ft | 203 kts | 326° |
| 2026-05-06 00:55 | -30.85102 | 135.97462 | 16049 ft | 202 kts | 326° |
| 2026-05-06 00:56 | -30.83888 | 135.96637 | 16048 ft | 202 kts | 326° |
| 2026-05-06 00:56 | -30.82673 | 135.95812 | 16051 ft | 202 kts | 326° |
| 2026-05-06 00:56 | -30.81460 | 135.94986 | 16048 ft | 202 kts | 326° |
| 2026-05-06 00:56 | -30.80246 | 135.94159 | 16048 ft | 202 kts | 326° |
| 2026-05-06 00:57 | -30.79029 | 135.93330 | 16046 ft | 203 kts | 326° |
| 2026-05-06 00:57 | -30.77815 | 135.92502 | 16047 ft | 202 kts | 326° |
| 2026-05-06 00:57 | -30.76599 | 135.91672 | 16043 ft | 203 kts | 326° |
| 2026-05-06 00:57 | -30.75385 | 135.90845 | 16055 ft | 202 kts | 326° |
| 2026-05-06 00:58 | -30.74171 | 135.90019 | 16048 ft | 202 kts | 326° |
| 2026-05-06 00:58 | -30.72957 | 135.89193 | 16050 ft | 202 kts | 326° |
| 2026-05-06 00:58 | -30.71742 | 135.88366 | 16050 ft | 202 kts | 326° |
| 2026-05-06 00:58 | -30.70526 | 135.87539 | 16050 ft | 202 kts | 326° |
| 2026-05-06 00:59 | -30.69306 | 135.86710 | 16050 ft | 202 kts | 326° |
| 2026-05-06 00:59 | -30.68105 | 135.85895 | 16050 ft | 203 kts | 326° |
| 2026-05-06 00:59 | -30.66887 | 135.85067 | 16047 ft | 203 kts | 326° |
| 2026-05-06 00:59 | -30.65669 | 135.84238 | 16048 ft | 203 kts | 326° |
| 2026-05-06 01:00 | -30.64452 | 135.83411 | 16048 ft | 203 kts | 326° |
| 2026-05-06 01:00 | -30.63234 | 135.82583 | 16049 ft | 203 kts | 326° |
| 2026-05-06 01:00 | -30.62015 | 135.81759 | 16050 ft | 203 kts | 326° |
| 2026-05-06 01:00 | -30.60796 | 135.80936 | 16050 ft | 203 kts | 326° |
| 2026-05-06 01:01 | -30.59576 | 135.80113 | 16049 ft | 203 kts | 326° |
| 2026-05-06 01:01 | -30.58357 | 135.79292 | 16050 ft | 202 kts | 326° |
| 2026-05-06 01:01 | -30.57139 | 135.78470 | 16049 ft | 203 kts | 326° |
| 2026-05-06 01:01 | -30.55917 | 135.77645 | 16049 ft | 203 kts | 326° |
| 2026-05-06 01:02 | -30.54701 | 135.76821 | 16048 ft | 203 kts | 326° |
| 2026-05-06 01:02 | -30.53483 | 135.75994 | 16050 ft | 202 kts | 326° |
| 2026-05-06 01:02 | -30.52284 | 135.75179 | 16049 ft | 203 kts | 326° |
| 2026-05-06 01:02 | -30.51068 | 135.74353 | 16050 ft | 203 kts | 326° |
| 2026-05-06 01:03 | -30.49847 | 135.73527 | 16049 ft | 203 kts | 326° |
| 2026-05-06 01:03 | -30.48630 | 135.72703 | 16049 ft | 203 kts | 326° |
| 2026-05-06 01:03 | -30.47412 | 135.71881 | 16050 ft | 203 kts | 327° |
| 2026-05-06 01:03 | -30.46190 | 135.71056 | 16050 ft | 203 kts | 327° |
| 2026-05-06 01:04 | -30.44970 | 135.70233 | 16050 ft | 203 kts | 327° |
| 2026-05-06 01:04 | -30.43748 | 135.69410 | 16050 ft | 203 kts | 327° |
| 2026-05-06 01:04 | -30.42527 | 135.68588 | 16049 ft | 203 kts | 327° |
| 2026-05-06 01:04 | -30.41322 | 135.67779 | 16052 ft | 203 kts | 327° |
| 2026-05-06 01:05 | -30.40102 | 135.66959 | 16052 ft | 203 kts | 327° |
| 2026-05-06 01:05 | -30.38879 | 135.66136 | 16048 ft | 203 kts | 326° |
| 2026-05-06 01:05 | -30.37659 | 135.65311 | 16049 ft | 203 kts | 327° |
| 2026-05-06 01:05 | -30.36436 | 135.64483 | 16042 ft | 204 kts | 327° |
| 2026-05-06 01:06 | -30.35216 | 135.63657 | 16043 ft | 203 kts | 327° |
| 2026-05-06 01:06 | -30.33995 | 135.62832 | 16047 ft | 203 kts | 327° |
| 2026-05-06 01:06 | -30.32773 | 135.62006 | 16047 ft | 203 kts | 327° |
| 2026-05-06 01:06 | -30.31549 | 135.61182 | 16053 ft | 203 kts | 327° |
| 2026-05-06 01:07 | -30.30888 | 135.60738 | 16053 ft | 203 kts | 327° |
| 2026-05-06 01:07 | -30.29664 | 135.59915 | 16049 ft | 204 kts | 327° |
| 2026-05-06 01:07 | -30.28437 | 135.59093 | 16045 ft | 204 kts | 327° |
| 2026-05-06 01:07 | -30.27211 | 135.58273 | 16054 ft | 203 kts | 327° |
| 2026-05-06 01:08 | -30.25983 | 135.57450 | 16053 ft | 203 kts | 327° |
| 2026-05-06 01:08 | -30.24760 | 135.56630 | 16054 ft | 203 kts | 327° |
| 2026-05-06 01:08 | -30.23535 | 135.55808 | 16055 ft | 204 kts | 327° |
| 2026-05-06 01:08 | -30.22320 | 135.54992 | 16053 ft | 204 kts | 327° |
| 2026-05-06 01:09 | -30.21092 | 135.54165 | 16052 ft | 204 kts | 327° |
| 2026-05-06 01:09 | -30.19868 | 135.53333 | 16056 ft | 204 kts | 326° |
| 2026-05-06 01:09 | -30.18652 | 135.52493 | 16054 ft | 204 kts | 326° |
| 2026-05-06 01:09 | -30.17442 | 135.51642 | 16055 ft | 203 kts | 325° |
| 2026-05-06 01:10 | -30.16235 | 135.50784 | 16054 ft | 204 kts | 325° |
| 2026-05-06 01:10 | -30.15030 | 135.49919 | 16055 ft | 203 kts | 325° |
| 2026-05-06 01:10 | -30.13831 | 135.49053 | 16054 ft | 203 kts | 325° |
| 2026-05-06 01:10 | -30.12631 | 135.48187 | 16054 ft | 203 kts | 325° |
| 2026-05-06 01:11 | -30.11444 | 135.47334 | 16055 ft | 203 kts | 325° |
| 2026-05-06 01:11 | -30.10242 | 135.46474 | 16054 ft | 203 kts | 325° |
| 2026-05-06 01:11 | -30.09029 | 135.45612 | 16050 ft | 204 kts | 325° |
| 2026-05-06 01:11 | -30.07816 | 135.44757 | 16051 ft | 204 kts | 326° |
| 2026-05-06 01:12 | -30.06600 | 135.43908 | 16058 ft | 204 kts | 326° |
| 2026-05-06 01:12 | -30.05395 | 135.43074 | 16056 ft | 204 kts | 326° |
| 2026-05-06 01:12 | -30.04172 | 135.42231 | 16057 ft | 204 kts | 326° |
| 2026-05-06 01:12 | -30.02951 | 135.41392 | 16048 ft | 205 kts | 326° |
| 2026-05-06 01:13 | -30.01729 | 135.40551 | 16053 ft | 204 kts | 326° |
| 2026-05-06 01:13 | -30.00508 | 135.39709 | 16055 ft | 204 kts | 326° |
| 2026-05-06 01:13 | -29.99291 | 135.38866 | 16052 ft | 204 kts | 326° |
| 2026-05-06 01:13 | -29.98069 | 135.38015 | 16053 ft | 204 kts | 326° |
| 2026-05-06 01:14 | -29.95638 | 135.36317 | 16061 ft | 204 kts | 326° |
| 2026-05-06 01:14 | -29.94441 | 135.35474 | 16057 ft | 204 kts | 325° |
| 2026-05-06 01:14 | -29.93227 | 135.34617 | 16055 ft | 204 kts | 325° |
| 2026-05-06 01:15 | -29.92014 | 135.33763 | 16055 ft | 204 kts | 325° |
| 2026-05-06 01:15 | -29.90803 | 135.32907 | 16049 ft | 204 kts | 325° |
| 2026-05-06 01:15 | -29.89590 | 135.32052 | 16057 ft | 204 kts | 325° |
| 2026-05-06 01:15 | -29.88377 | 135.31200 | 16056 ft | 204 kts | 326° |
| 2026-05-06 01:16 | -29.87162 | 135.30349 | 16059 ft | 204 kts | 326° |
| 2026-05-06 01:16 | -29.85949 | 135.29497 | 16063 ft | 204 kts | 325° |
| 2026-05-06 01:16 | -29.84730 | 135.28644 | 15953 ft | 209 kts | 326° |
| 2026-05-06 01:16 | -29.83450 | 135.27771 | 15745 ft | 217 kts | 327° |
| 2026-05-06 01:17 | -29.82112 | 135.26892 | 15496 ft | 225 kts | 328° |
| 2026-05-06 01:17 | -29.80721 | 135.26005 | 15281 ft | 231 kts | 329° |
| 2026-05-06 01:17 | -29.79286 | 135.25121 | 14992 ft | 238 kts | 329° |
| 2026-05-06 01:17 | -29.77795 | 135.24213 | 14659 ft | 245 kts | 329° |
| 2026-05-06 01:18 | -29.76291 | 135.23275 | 14416 ft | 247 kts | 329° |
| 2026-05-06 01:18 | -29.74774 | 135.22334 | 14169 ft | 249 kts | 328° |
| 2026-05-06 01:18 | -29.73312 | 135.21326 | 13904 ft | 249 kts | 327° |
| 2026-05-06 01:18 | -29.71841 | 135.20251 | 13597 ft | 251 kts | 325° |
| 2026-05-06 01:19 | -29.70369 | 135.19158 | 13330 ft | 252 kts | 326° |
| 2026-05-06 01:19 | -29.68881 | 135.18104 | 13127 ft | 249 kts | 327° |
| 2026-05-06 01:19 | -29.67416 | 135.17044 | 12935 ft | 248 kts | 326° |
| 2026-05-06 01:19 | -29.65962 | 135.16013 | 12710 ft | 248 kts | 327° |
| 2026-05-06 01:20 | -29.64474 | 135.15015 | 12469 ft | 248 kts | 328° |
| 2026-05-06 01:20 | -29.62985 | 135.13992 | 12166 ft | 250 kts | 327° |
| 2026-05-06 01:20 | -29.61500 | 135.12915 | 11852 ft | 253 kts | 326° |
| 2026-05-06 01:20 | -29.60013 | 135.11812 | 11523 ft | 255 kts | 325° |
| 2026-05-06 01:21 | -29.58527 | 135.10694 | 11251 ft | 254 kts | 326° |
| 2026-05-06 01:21 | -29.57033 | 135.09597 | 10975 ft | 255 kts | 326° |
| 2026-05-06 01:21 | -29.55543 | 135.08490 | 10730 ft | 253 kts | 325° |
| 2026-05-06 01:21 | -29.54096 | 135.07391 | 10506 ft | 252 kts | 326° |
| 2026-05-06 01:22 | -29.52624 | 135.06291 | 10279 ft | 252 kts | 326° |
| 2026-05-06 01:22 | -29.51150 | 135.05203 | 10036 ft | 251 kts | 327° |
| 2026-05-06 01:22 | -29.49662 | 135.04151 | 9805 ft | 250 kts | 327° |
| 2026-05-06 01:22 | -29.48163 | 135.03116 | 9505 ft | 252 kts | 328° |
| 2026-05-06 01:23 | -29.46626 | 135.02121 | 9190 ft | 254 kts | 330° |
| 2026-05-06 01:23 | -29.45076 | 135.01164 | 8988 ft | 250 kts | 330° |
| 2026-05-06 01:23 | -29.43568 | 135.00222 | 8774 ft | 243 kts | 330° |
| 2026-05-06 01:23 | -29.42079 | 134.99283 | 8367 ft | 246 kts | 330° |
| 2026-05-06 01:24 | -29.40605 | 134.98285 | 8112 ft | 241 kts | 327° |
| 2026-05-06 01:24 | -29.39198 | 134.97298 | 7981 ft | 235 kts | 328° |
| 2026-05-06 01:24 | -29.37802 | 134.96326 | 7751 ft | 235 kts | 328° |
| 2026-05-06 01:24 | -29.36431 | 134.95353 | 7517 ft | 234 kts | 327° |
| 2026-05-06 01:25 | -29.35047 | 134.94351 | 7265 ft | 235 kts | 327° |
| 2026-05-06 01:25 | -29.33665 | 134.93353 | 7065 ft | 234 kts | 327° |
| 2026-05-06 01:25 | -29.32290 | 134.92362 | 6826 ft | 234 kts | 326° |
| 2026-05-06 01:25 | -29.30910 | 134.91357 | 6547 ft | 235 kts | 326° |
| 2026-05-06 01:26 | -29.29537 | 134.90334 | 6307 ft | 235 kts | 326° |
| 2026-05-06 01:26 | -29.28151 | 134.89328 | 6061 ft | 236 kts | 327° |
| 2026-05-06 01:26 | -29.26761 | 134.88337 | 5842 ft | 234 kts | 327° |
| 2026-05-06 01:26 | -29.25377 | 134.87356 | 5617 ft | 234 kts | 327° |
| 2026-05-06 01:27 | -29.24463 | 134.86710 | 5486 ft | 233 kts | 327° |
| 2026-05-06 01:27 | -29.22644 | 134.85419 | 5266 ft | 231 kts | 327° |
| 2026-05-06 01:27 | -29.21280 | 134.84466 | 5069 ft | 229 kts | 328° |
| 2026-05-06 01:27 | -29.19912 | 134.83516 | 4837 ft | 231 kts | 328° |
| 2026-05-06 01:28 | -29.18528 | 134.82562 | 4578 ft | 231 kts | 328° |
| 2026-05-06 01:28 | -29.17138 | 134.81634 | 4361 ft | 231 kts | 329° |
| 2026-05-06 01:28 | -29.16221 | 134.81052 | 4240 ft | 225 kts | 330° |
| 2026-05-06 01:28 | -29.14868 | 134.80229 | 3950 ft | 216 kts | 332° |
| 2026-05-06 01:29 | -29.13548 | 134.79455 | 3637 ft | 212 kts | 332° |
| 2026-05-06 01:29 | -29.12245 | 134.78696 | 3363 ft | 208 kts | 332° |
| 2026-05-06 01:29 | -29.10966 | 134.77960 | 3132 ft | 204 kts | 332° |
| 2026-05-06 01:29 | -29.09701 | 134.77242 | 2882 ft | 203 kts | 333° |
| 2026-05-06 01:30 | -29.08437 | 134.76527 | 2587 ft | 203 kts | 333° |
| 2026-05-06 01:30 | -29.07166 | 134.75802 | 2289 ft | 204 kts | 333° |
| 2026-05-06 01:30 | -29.05894 | 134.75072 | 2017 ft | 205 kts | 332° |
| 2026-05-06 01:30 | -29.04644 | 134.74335 | 1696 ft | 198 kts | 331° |
| 2026-05-06 01:31 | -29.03481 | 134.73621 | 1667 ft | 184 kts | 333° |
| 2026-05-06 01:31 | -29.02416 | 134.72995 | 1791 ft | 163 kts | 331° |
| 2026-05-06 01:31 | -29.01467 | 134.72392 | 1831 ft | 152 kts | 330° |
| 2026-05-06 01:31 | -29.00562 | 134.71798 | 1762 ft | 148 kts | 329° |
| 2026-05-06 01:32 | -28.99694 | 134.71150 | 1673 ft | 151 kts | 316° |
| 2026-05-06 01:32 | -28.99274 | 134.70202 | 1501 ft | 123 kts | 265° |
| 2026-05-06 01:32 | -28.99517 | 134.69342 | 1370 ft | 106 kts | 220° |
| 2026-05-06 01:32 | -29.00126 | 134.69067 | 1361 ft | 93 kts | 165° |
| 2026-05-06 01:33 | -29.00625 | 134.69488 | 1285 ft | 97 kts | 131° |
| 2026-05-06 01:33 | -29.01060 | 134.70152 | 1301 ft | 109 kts | 128° |
| 2026-05-06 01:33 | -29.01565 | 134.70702 | 1179 ft | 93 kts | 149° |
| 2026-05-06 01:33 | -29.02091 | 134.71057 | 1068 ft | 86 kts | 151° |
| 2026-05-06 01:34 | -29.02581 | 134.71389 | 946 ft | 83 kts | 150° |
| 2026-05-06 01:34 | -29.03093 | 134.71735 | 859 ft | 87 kts | 154° |
| 2026-05-06 01:34 | -29.03595 | 134.72063 | 747 ft | 78 kts | 153° |
| 2026-05-06 01:34 | -29.03965 | 134.72300 | 741 ft | 43 kts | 152° |
| 2026-05-06 01:35 | -29.04146 | 134.72424 | 742 ft | 20 kts | 150° |
| 2026-05-06 01:35 | -29.04214 | 134.72473 | 742 ft | 6 kts | 29° |
| 2026-05-06 01:35 | -29.04159 | 134.72436 | 742 ft | 17 kts | 329° |
| 2026-05-06 01:35 | -29.04046 | 134.72363 | 741 ft | 19 kts | 330° |
| 2026-05-06 01:36 | -29.03936 | 134.72292 | 741 ft | 17 kts | 329° |
| 2026-05-06 01:36 | -29.03839 | 134.72236 | 743 ft | 16 kts | 4° |
| 2026-05-06 01:36 | -29.03744 | 134.72343 | 741 ft | 22 kts | 49° |
| 2026-05-06 01:36 | -29.03668 | 134.72432 | 742 ft | 9 kts | 8° |
| 2026-05-06 01:37 | -29.03606 | 134.72379 | 736 ft | 6 kts | 317° |
| 2026-05-06 01:37 | -29.03588 | 134.72360 | 736 ft | 0 kts | 313° |
| 2026-05-06 01:37 | -29.03586 | 134.72357 | 736 ft | 3 kts | 315° |
| 2026-05-06 01:37 | -29.03546 | 134.72376 | 735 ft | 9 kts | 53° |
| 2026-05-06 01:38 | -29.03523 | 134.72387 | 735 ft | 4 kts | 300° |
| 2026-05-06 01:38 | -29.03529 | 134.72373 | 735 ft | 2 kts | 206° |
| 2026-05-06 01:38 | -29.03532 | 134.72371 | 735 ft | 1 kts | 227° |
| 2026-05-06 01:38 | -29.03536 | 134.72366 | 735 ft | 0 kts | 228° |